createdAt,value
2018-09-17T00:00:58.424Z,0.00
2018-09-17T00:01:58.601Z,0.00
2018-09-17T00:02:58.781Z,0.00
2018-09-17T00:03:58.968Z,0.00
2018-09-17T00:04:59.143Z,0.00
2018-09-17T00:07:59.662Z,0.00
2018-09-17T00:08:59.849Z,0.00
2018-09-17T00:10:00.031Z,0.00
2018-09-17T00:11:00.205Z,0.00
2018-09-17T00:12:00.385Z,0.00
2018-09-17T00:13:00.565Z,0.00
2018-09-17T00:14:00.746Z,0.00
2018-09-17T00:15:00.923Z,0.00
2018-09-17T00:16:01.095Z,0.00
2018-09-17T00:17:01.271Z,0.00
2018-09-17T00:18:01.444Z,0.00
2018-09-17T00:19:01.668Z,0.00
2018-09-17T00:20:01.800Z,0.00
2018-09-17T00:21:01.985Z,0.00
2018-09-17T00:22:02.159Z,0.00
2018-09-17T00:23:02.337Z,0.00
2018-09-17T00:24:02.514Z,0.00
2018-09-17T00:25:02.691Z,0.00
2018-09-17T00:26:02.870Z,0.00
2018-09-17T00:27:03.036Z,0.00
2018-09-17T00:28:03.219Z,0.00
2018-09-17T00:29:03.398Z,0.00
2018-09-17T00:30:03.585Z,0.00
2018-09-17T00:31:03.748Z,0.00
2018-09-17T00:32:03.927Z,0.00
2018-09-17T00:33:04.105Z,0.00
2018-09-17T00:34:04.282Z,0.00
2018-09-17T00:35:04.459Z,0.00
2018-09-17T00:36:04.643Z,0.00
2018-09-17T00:37:05.398Z,0.00
2018-09-17T00:39:05.130Z,0.00
2018-09-17T00:40:05.313Z,0.00
2018-09-17T00:41:05.491Z,0.00
2018-09-17T00:42:05.669Z,0.00
2018-09-17T00:43:05.859Z,0.00
2018-09-17T00:44:06.020Z,0.00
2018-09-17T00:45:06.196Z,0.00
2018-09-17T00:46:06.375Z,0.00
2018-09-17T00:47:06.559Z,0.00
2018-09-17T00:48:06.737Z,0.00
2018-09-17T00:49:06.911Z,0.00
2018-09-17T00:50:07.083Z,0.00
2018-09-17T00:51:07.262Z,0.00
2018-09-17T00:52:07.440Z,0.00
2018-09-17T00:53:07.619Z,0.00
2018-09-17T00:54:07.796Z,0.00
2018-09-17T00:55:07.974Z,0.00
2018-09-17T00:56:08.150Z,0.00
2018-09-17T00:57:08.330Z,0.00
2018-09-17T00:58:08.507Z,0.00
2018-09-17T00:59:08.687Z,0.00
2018-09-17T01:00:08.866Z,0.00
2018-09-17T01:01:09.038Z,0.00
2018-09-17T01:02:09.218Z,0.00
2018-09-17T01:03:09.397Z,0.00
2018-09-17T01:04:09.582Z,0.00
2018-09-17T01:05:09.763Z,0.00
2018-09-17T01:06:09.943Z,0.00
2018-09-17T01:07:10.117Z,0.00
2018-09-17T01:08:10.288Z,0.00
2018-09-17T01:09:10.471Z,0.00
2018-09-17T01:10:10.665Z,0.00
2018-09-17T01:11:10.836Z,0.00
2018-09-17T01:12:11.010Z,0.00
2018-09-17T01:13:11.188Z,0.00
2018-09-17T01:14:11.372Z,0.00
2018-09-17T01:15:11.541Z,0.00
2018-09-17T01:16:11.718Z,0.00
2018-09-17T01:17:11.897Z,0.00
2018-09-17T01:18:12.077Z,0.00
2018-09-17T01:19:12.254Z,0.00
2018-09-17T01:20:12.432Z,0.00
2018-09-17T01:21:12.609Z,0.00
2018-09-17T01:22:12.786Z,0.00
2018-09-17T01:23:12.971Z,0.00
2018-09-17T01:24:13.146Z,0.00
2018-09-17T01:25:13.313Z,0.00
2018-09-17T01:26:13.495Z,0.00
2018-09-17T01:27:13.670Z,0.00
2018-09-17T01:28:13.851Z,0.00
2018-09-17T01:29:14.032Z,0.00
2018-09-17T01:30:14.201Z,0.00
2018-09-17T01:31:14.379Z,0.00
2018-09-17T01:32:14.566Z,0.00
2018-09-17T01:33:14.737Z,0.00
2018-09-17T01:34:14.907Z,0.00
2018-09-17T01:35:15.082Z,0.00
2018-09-17T01:36:15.257Z,0.00
2018-09-17T01:37:15.436Z,0.00
2018-09-17T01:38:15.614Z,0.00
2018-09-17T01:39:15.798Z,0.00
2018-09-17T01:40:15.977Z,0.00
2018-09-17T01:41:16.153Z,0.00
2018-09-17T01:42:16.335Z,0.00
2018-09-17T01:43:16.518Z,0.00
2018-09-17T01:44:16.699Z,0.00
2018-09-17T01:45:16.871Z,0.00
2018-09-17T01:46:17.102Z,0.00
2018-09-17T01:47:17.224Z,0.00
2018-09-17T01:48:17.405Z,0.00
2018-09-17T01:49:17.572Z,0.00
2018-09-17T01:50:17.754Z,0.00
2018-09-17T01:51:17.935Z,0.00
2018-09-17T01:52:18.106Z,0.00
2018-09-17T01:53:18.285Z,0.00
2018-09-17T01:54:18.464Z,0.00
2018-09-17T01:55:18.641Z,0.00
2018-09-17T01:56:18.818Z,0.00
2018-09-17T01:57:19.000Z,0.00
2018-09-17T01:58:19.173Z,0.00
2018-09-17T01:59:19.351Z,0.00
2018-09-17T02:00:19.534Z,0.00
2018-09-17T02:01:19.707Z,0.00
2018-09-17T02:02:19.884Z,0.00
2018-09-17T02:03:20.065Z,0.00
2018-09-17T02:04:20.244Z,0.00
2018-09-17T02:05:20.425Z,0.00
2018-09-17T02:06:20.615Z,0.00
2018-09-17T02:07:20.790Z,0.00
2018-09-17T02:08:20.966Z,0.00
2018-09-17T02:09:21.143Z,0.00
2018-09-17T02:10:21.332Z,0.00
2018-09-17T02:11:21.502Z,0.00
2018-09-17T02:12:21.681Z,0.00
2018-09-17T02:13:21.860Z,0.00
2018-09-17T02:14:22.036Z,0.00
2018-09-17T02:15:22.211Z,0.00
2018-09-17T02:16:22.381Z,0.00
2018-09-17T02:17:22.567Z,0.00
2018-09-17T02:18:22.749Z,0.00
2018-09-17T02:19:22.922Z,0.00
2018-09-17T02:20:23.102Z,0.00
2018-09-17T02:21:23.286Z,0.00
2018-09-17T02:22:23.459Z,0.00
2018-09-17T02:23:23.631Z,0.00
2018-09-17T02:24:23.810Z,0.00
2018-09-17T02:25:23.989Z,0.00
2018-09-17T02:26:24.172Z,0.00
2018-09-17T02:27:24.354Z,0.00
2018-09-17T02:28:24.522Z,0.00
2018-09-17T02:29:24.699Z,0.00
2018-09-17T02:30:24.879Z,0.00
2018-09-17T02:31:25.064Z,0.00
2018-09-17T02:32:25.226Z,0.00
2018-09-17T02:33:25.403Z,0.00
2018-09-17T02:34:25.581Z,0.00
2018-09-17T02:35:25.760Z,0.00
2018-09-17T02:36:25.942Z,0.00
2018-09-17T02:37:26.108Z,0.00
2018-09-17T02:38:26.292Z,0.00
2018-09-17T02:39:26.462Z,0.00
2018-09-17T02:40:26.644Z,0.00
2018-09-17T02:41:26.826Z,0.00
2018-09-17T02:42:27.008Z,0.00
2018-09-17T02:43:27.186Z,0.00
2018-09-17T02:44:27.363Z,0.00
2018-09-17T02:45:27.541Z,0.00
2018-09-17T02:46:27.709Z,0.00
2018-09-17T02:47:27.887Z,0.00
2018-09-17T02:48:28.065Z,0.00
2018-09-17T02:49:28.252Z,0.00
2018-09-17T02:50:28.417Z,0.00
2018-09-17T02:51:28.605Z,0.00
2018-09-17T02:52:28.786Z,0.00
2018-09-17T02:53:29.005Z,0.00
2018-09-17T02:54:29.139Z,0.00
2018-09-17T02:55:29.308Z,0.00
2018-09-17T02:56:29.495Z,0.00
2018-09-17T02:57:29.672Z,0.00
2018-09-17T02:58:29.852Z,0.00
2018-09-17T02:59:30.042Z,0.00
2018-09-17T03:00:30.206Z,0.00
2018-09-17T03:01:30.381Z,0.00
2018-09-17T03:02:30.562Z,0.00
2018-09-17T03:03:30.728Z,0.00
2018-09-17T03:04:30.907Z,0.00
2018-09-17T03:05:31.090Z,0.00
2018-09-17T03:06:31.280Z,0.00
2018-09-17T03:07:32.364Z,0.00
2018-09-17T03:08:31.624Z,0.00
2018-09-17T03:09:31.798Z,0.00
2018-09-17T03:10:31.967Z,0.00
2018-09-17T03:11:32.151Z,0.00
2018-09-17T03:12:32.320Z,0.00
2018-09-17T03:13:32.500Z,0.00
2018-09-17T03:14:32.669Z,0.00
2018-09-17T03:15:32.847Z,0.00
2018-09-17T03:16:33.022Z,0.00
2018-09-17T03:17:33.205Z,0.00
2018-09-17T03:18:33.390Z,0.00
2018-09-17T03:19:33.552Z,0.00
2018-09-17T03:20:33.727Z,0.00
2018-09-17T03:21:33.907Z,0.00
2018-09-17T03:22:34.084Z,0.00
2018-09-17T03:23:34.279Z,0.00
2018-09-17T03:24:34.462Z,0.00
2018-09-17T03:25:34.634Z,0.00
2018-09-17T03:26:34.812Z,0.00
2018-09-17T03:27:34.993Z,0.00
2018-09-17T03:28:35.178Z,0.00
2018-09-17T03:29:35.344Z,0.00
2018-09-17T03:30:35.521Z,0.00
2018-09-17T03:31:35.698Z,0.00
2018-09-17T03:32:35.880Z,0.00
2018-09-17T03:33:36.046Z,0.00
2018-09-17T03:34:36.232Z,0.00
2018-09-17T03:35:36.399Z,0.00
2018-09-17T03:36:36.589Z,0.00
2018-09-17T03:37:36.762Z,0.00
2018-09-17T03:38:36.943Z,0.00
2018-09-17T03:39:37.117Z,0.00
2018-09-17T03:40:37.291Z,0.00
2018-09-17T03:41:37.464Z,0.00
2018-09-17T03:42:37.638Z,0.00
2018-09-17T03:43:37.829Z,0.00
2018-09-17T03:44:37.982Z,0.00
2018-09-17T03:45:38.162Z,0.00
2018-09-17T03:46:38.425Z,0.00
2018-09-17T03:47:38.520Z,0.00
2018-09-17T03:48:38.683Z,0.00
2018-09-17T03:49:38.863Z,0.00
2018-09-17T03:50:39.045Z,0.00
2018-09-17T03:51:39.225Z,0.00
2018-09-17T03:52:39.400Z,0.00
2018-09-17T03:53:39.576Z,0.00
2018-09-17T03:54:39.754Z,0.00
2018-09-17T03:55:39.930Z,0.00
2018-09-17T03:56:40.113Z,0.00
2018-09-17T03:57:40.288Z,0.00
2018-09-17T03:58:40.472Z,0.00
2018-09-17T03:59:40.649Z,0.00
2018-09-17T04:00:40.827Z,0.00
2018-09-17T04:01:40.997Z,0.00
2018-09-17T04:02:41.176Z,0.00
2018-09-17T04:03:41.354Z,0.00
2018-09-17T04:04:41.529Z,0.00
2018-09-17T04:05:41.708Z,0.00
2018-09-17T04:06:41.884Z,0.00
2018-09-17T04:07:42.075Z,0.00
2018-09-17T04:08:42.238Z,0.00
2018-09-17T04:09:42.417Z,0.00
2018-09-17T04:10:42.607Z,0.00
2018-09-17T04:11:42.780Z,0.00
2018-09-17T04:12:42.957Z,0.00
2018-09-17T04:13:43.140Z,0.00
2018-09-17T04:14:43.315Z,0.00
2018-09-17T04:15:43.487Z,0.00
2018-09-17T04:16:43.674Z,0.00
2018-09-17T04:17:43.845Z,0.00
2018-09-17T04:18:44.023Z,0.00
2018-09-17T04:19:44.361Z,0.00
2018-09-17T04:20:44.403Z,0.00
2018-09-17T04:21:44.591Z,0.00
2018-09-17T04:22:44.779Z,0.00
2018-09-17T04:23:44.945Z,0.00
2018-09-17T04:24:45.122Z,0.00
2018-09-17T04:25:45.298Z,4.00
2018-09-17T04:26:45.479Z,4.00
2018-09-17T04:27:45.654Z,4.00
2018-09-17T04:28:45.830Z,4.00
2018-09-17T04:29:46.011Z,4.00
2018-09-17T04:30:46.184Z,4.00
2018-09-17T04:31:46.365Z,4.00
2018-09-17T04:32:46.541Z,8.00
2018-09-17T04:33:46.716Z,8.00
2018-09-17T04:34:46.904Z,8.00
2018-09-17T04:35:47.071Z,12.00
2018-09-17T04:36:47.255Z,12.00
2018-09-17T04:37:47.438Z,12.00
2018-09-17T04:38:47.601Z,16.00
2018-09-17T04:39:47.785Z,24.00
2018-09-17T04:40:47.945Z,24.00
2018-09-17T04:41:48.127Z,32.00
2018-09-17T04:42:48.317Z,36.00
2018-09-17T04:43:48.492Z,40.00
2018-09-17T04:44:48.673Z,48.00
2018-09-17T04:45:48.893Z,56.00
2018-09-17T04:46:49.028Z,64.00
2018-09-17T04:47:49.199Z,72.00
2018-09-17T04:48:49.379Z,84.00
2018-09-17T04:49:49.555Z,92.00
2018-09-17T04:50:49.735Z,104.00
2018-09-17T04:51:49.933Z,120.00
2018-09-17T04:52:50.107Z,132.00
2018-09-17T04:53:50.281Z,148.00
2018-09-17T04:54:50.442Z,164.00
2018-09-17T04:55:50.622Z,184.00
2018-09-17T04:56:50.796Z,208.00
2018-09-17T04:57:50.972Z,228.00
2018-09-17T04:58:51.149Z,248.00
2018-09-17T04:59:51.328Z,276.00
2018-09-17T05:00:51.505Z,300.00
2018-09-17T05:01:51.689Z,324.00
2018-09-17T05:02:51.871Z,356.00
2018-09-17T05:03:52.037Z,388.00
2018-09-17T05:04:52.219Z,424.00
2018-09-17T05:05:52.392Z,460.00
2018-09-17T05:06:52.569Z,500.00
2018-09-17T05:07:52.765Z,536.00
2018-09-17T05:08:52.927Z,576.00
2018-09-17T05:09:53.108Z,616.00
2018-09-17T05:10:53.285Z,656.00
2018-09-17T05:11:53.448Z,692.00
2018-09-17T05:12:53.648Z,740.00
2018-09-17T05:13:53.801Z,792.00
2018-09-17T05:14:54.008Z,844.00
2018-09-17T05:15:54.155Z,896.00
2018-09-17T05:16:54.323Z,952.00
2018-09-17T05:17:54.499Z,1004.00
2018-09-17T05:19:54.867Z,1104.00
2018-09-17T05:20:55.031Z,1160.00
2018-09-17T05:21:55.212Z,1212.00
2018-09-17T05:22:55.373Z,1260.00
2018-09-17T05:23:55.557Z,1312.00
2018-09-17T05:24:55.748Z,1360.00
2018-09-17T05:25:55.895Z,1412.00
2018-09-17T05:26:56.101Z,1460.00
2018-09-17T05:27:56.235Z,1512.00
2018-09-17T05:28:56.417Z,1560.00
2018-09-17T05:29:56.592Z,1608.00
2018-09-17T05:30:56.760Z,1656.00
2018-09-17T05:31:56.942Z,1704.00
2018-09-17T05:32:57.117Z,1752.00
2018-09-17T05:33:57.292Z,1800.00
2018-09-17T05:34:57.545Z,1852.00
2018-09-17T05:35:57.638Z,1908.00
2018-09-17T05:36:57.862Z,1972.00
2018-09-17T05:37:58.042Z,2032.00
2018-09-17T05:38:58.209Z,2092.00
2018-09-17T05:39:58.385Z,2160.00
2018-09-17T05:40:58.580Z,2220.00
2018-09-17T05:41:58.747Z,2288.00
2018-09-17T05:42:58.911Z,2340.00
2018-09-17T05:43:59.085Z,2408.00
2018-09-17T05:44:59.265Z,2484.00
2018-09-17T05:45:59.447Z,2568.00
2018-09-17T05:46:59.630Z,2652.00
2018-09-17T05:47:59.811Z,2728.00
2018-09-17T05:48:59.981Z,2804.00
2018-09-17T05:50:00.177Z,2880.00
2018-09-17T05:51:00.343Z,2968.00
2018-09-17T05:54:32.806Z,16704.00
2018-09-17T05:55:32.986Z,17728.00
2018-09-17T05:56:33.185Z,17632.00
2018-09-17T05:57:34.272Z,18784.00
2018-09-17T05:58:33.525Z,22496.00
2018-09-17T05:59:33.740Z,23168.00
2018-09-17T06:00:33.891Z,23456.00
2018-09-17T06:01:34.069Z,23776.00
2018-09-17T06:02:34.247Z,24832.00
2018-09-17T06:03:34.413Z,26048.00
2018-09-17T06:04:34.592Z,26272.00
2018-09-17T06:05:34.839Z,25216.00
2018-09-17T06:06:34.951Z,24608.00
2018-09-17T06:07:35.151Z,24960.00
2018-09-17T06:08:35.313Z,26208.00
2018-09-17T06:09:35.519Z,27072.00
2018-09-17T06:10:35.679Z,27680.00
2018-09-17T06:11:35.862Z,27552.00
2018-09-17T06:12:36.041Z,27168.00
2018-09-17T06:13:36.221Z,28000.00
2018-09-17T06:14:36.481Z,29088.00
2018-09-17T06:15:36.588Z,29568.00
2018-09-17T06:16:36.770Z,28608.00
2018-09-17T06:17:36.952Z,27616.00
2018-09-17T06:18:37.133Z,27360.00
2018-09-17T06:19:37.344Z,27840.00
2018-09-17T06:20:37.503Z,29184.00
2018-09-17T06:21:37.704Z,30528.00
2018-09-17T06:22:37.889Z,30592.00
2018-09-17T06:23:38.075Z,29536.00
2018-09-17T06:24:38.252Z,28288.00
2018-09-17T06:25:38.447Z,27424.00
2018-09-17T06:26:38.792Z,27872.00
2018-09-17T06:27:38.802Z,28032.00
2018-09-17T06:28:39.023Z,27616.00
2018-09-17T06:29:39.190Z,26656.00
2018-09-17T06:30:39.379Z,26752.00
2018-09-17T06:31:39.559Z,27232.00
2018-09-17T06:32:39.746Z,27264.00
2018-09-17T06:33:39.929Z,27456.00
2018-09-17T06:34:40.105Z,27712.00
2018-09-17T06:35:40.287Z,28032.00
2018-09-17T06:36:40.479Z,27264.00
2018-09-17T06:37:40.788Z,28640.00
2018-09-17T06:38:40.864Z,30144.00
2018-09-17T06:39:41.049Z,28736.00
2018-09-17T06:40:41.226Z,27392.00
2018-09-17T06:41:41.481Z,28128.00
2018-09-17T06:42:41.592Z,27680.00
2018-09-17T06:43:41.781Z,26144.00
2018-09-17T06:44:41.971Z,26784.00
2018-09-17T06:45:42.157Z,27424.00
2018-09-17T06:46:42.355Z,27392.00
2018-09-17T06:47:42.638Z,27392.00
2018-09-17T06:48:42.712Z,28192.00
2018-09-17T06:49:42.976Z,28768.00
2018-09-17T06:50:43.094Z,28384.00
2018-09-17T06:51:43.272Z,27712.00
2018-09-17T06:52:43.454Z,26848.00
2018-09-17T06:53:43.658Z,24640.00
2018-09-17T06:54:43.840Z,23392.00
2018-09-17T06:55:44.031Z,23584.00
2018-09-17T06:56:44.207Z,23328.00
2018-09-17T06:57:44.415Z,24224.00
2018-09-17T06:58:44.595Z,24768.00
2018-09-17T06:59:44.795Z,24032.00
2018-09-17T07:02:45.375Z,20448.00
2018-09-17T07:03:45.492Z,20384.00
2018-09-17T07:04:45.676Z,19104.00
2018-09-17T07:05:45.884Z,19392.00
2018-09-17T07:06:46.039Z,19808.00
2018-09-17T07:07:46.221Z,19264.00
2018-09-17T07:08:46.415Z,20960.00
2018-09-17T07:09:46.586Z,21536.00
2018-09-17T07:10:46.772Z,20736.00
2018-09-17T07:11:46.956Z,20448.00
2018-09-17T07:12:47.133Z,20288.00
2018-09-17T07:13:47.334Z,19904.00
2018-09-17T07:14:47.517Z,19392.00
2018-09-17T07:15:47.696Z,19040.00
2018-09-17T07:16:47.903Z,18400.00
2018-09-17T07:17:48.084Z,16832.00
2018-09-17T07:18:48.276Z,15360.00
2018-09-17T07:19:48.475Z,14408.00
2018-09-17T07:20:48.655Z,14588.00
2018-09-17T07:21:48.842Z,15008.00
2018-09-17T07:22:49.032Z,14584.00
2018-09-17T07:23:49.217Z,14824.00
2018-09-17T07:24:49.408Z,13444.00
2018-09-17T07:25:49.596Z,12632.00
2018-09-17T07:26:49.775Z,11848.00
2018-09-17T07:27:49.957Z,11792.00
2018-09-17T07:28:50.132Z,11832.00
2018-09-17T07:29:50.338Z,12332.00
2018-09-17T07:30:50.536Z,13292.00
2018-09-17T07:31:50.720Z,13532.00
2018-09-17T07:32:50.906Z,13492.00
2018-09-17T07:33:51.091Z,13012.00
2018-09-17T07:34:51.290Z,12648.00
2018-09-17T07:35:51.464Z,11700.00
2018-09-17T07:36:51.635Z,11544.00
2018-09-17T07:37:51.842Z,11868.00
2018-09-17T07:38:52.011Z,12096.00
2018-09-17T07:39:52.215Z,13024.00
2018-09-17T07:40:52.405Z,13940.00
2018-09-17T07:41:52.584Z,14184.00
2018-09-17T07:42:52.778Z,13512.00
2018-09-17T07:43:52.950Z,13352.00
2018-09-17T07:44:53.121Z,12556.00
2018-09-17T07:45:53.327Z,12300.00
2018-09-17T07:46:53.502Z,11792.00
2018-09-17T07:47:53.736Z,12440.00
2018-09-17T07:48:53.863Z,12676.00
2018-09-17T07:49:54.045Z,13216.00
2018-09-17T07:50:54.231Z,13584.00
2018-09-17T07:51:54.409Z,13392.00
2018-09-17T07:52:54.658Z,13384.00
2018-09-17T07:53:54.801Z,13780.00
2018-09-17T07:54:54.984Z,13136.00
2018-09-17T07:55:55.163Z,12812.00
2018-09-17T07:56:55.348Z,12796.00
2018-09-17T07:57:55.525Z,13436.00
2018-09-17T07:58:55.743Z,14428.00
2018-09-17T07:59:55.904Z,14228.00
2018-09-17T08:00:56.074Z,14500.00
2018-09-17T08:01:56.265Z,14756.00
2018-09-17T08:02:56.445Z,15296.00
2018-09-17T08:03:56.627Z,14276.00
2018-09-17T08:04:56.824Z,14584.00
2018-09-17T08:05:57.035Z,15040.00
2018-09-17T08:06:57.220Z,14916.00
2018-09-17T08:07:57.404Z,15052.00
2018-09-17T08:08:57.601Z,14456.00
2018-09-17T08:09:57.790Z,15332.00
2018-09-17T08:10:57.969Z,15536.00
2018-09-17T08:11:58.145Z,15516.00
2018-09-17T08:12:58.324Z,15624.00
2018-09-17T08:13:58.512Z,15464.00
2018-09-17T08:14:58.695Z,15396.00
2018-09-17T08:15:58.890Z,15376.00
2018-09-17T08:16:59.072Z,15132.00
2018-09-17T08:17:59.247Z,14764.00
2018-09-17T08:18:59.452Z,14588.00
2018-09-17T08:19:59.664Z,14408.00
2018-09-17T08:20:59.807Z,14288.00
2018-09-17T08:21:59.995Z,13600.00
2018-09-17T08:23:00.191Z,12848.00
2018-09-17T08:24:00.374Z,12168.00
2018-09-17T08:25:00.567Z,11816.00
2018-09-17T08:26:00.762Z,11712.00
2018-09-17T08:27:00.933Z,12456.00
2018-09-17T08:28:01.128Z,12984.00
2018-09-17T08:29:01.324Z,13376.00
2018-09-17T08:30:01.507Z,13628.00
2018-09-17T08:31:01.681Z,13580.00
2018-09-17T08:32:01.870Z,13940.00
2018-09-17T08:33:02.067Z,13800.00
2018-09-17T08:34:02.261Z,14068.00
2018-09-17T08:35:02.445Z,14412.00
2018-09-17T08:36:02.642Z,14688.00
2018-09-17T08:37:02.815Z,14868.00
2018-09-17T08:38:03.035Z,15236.00
2018-09-17T08:39:03.177Z,15464.00
2018-09-17T08:40:03.365Z,15700.00
2018-09-17T08:41:03.553Z,16032.00
2018-09-17T08:42:03.761Z,15968.00
2018-09-17T08:43:03.943Z,16000.00
2018-09-17T08:44:04.128Z,15728.00
2018-09-17T08:45:04.332Z,15656.00
2018-09-17T08:46:04.513Z,15420.00
2018-09-17T08:47:04.715Z,14884.00
2018-09-17T08:48:04.902Z,14776.00
2018-09-17T08:49:05.087Z,14384.00
2018-09-17T08:50:05.265Z,13740.00
2018-09-17T08:51:05.452Z,12980.00
2018-09-17T08:52:05.699Z,12772.00
2018-09-17T08:53:05.883Z,12332.00
2018-09-17T08:54:06.035Z,12884.00
2018-09-17T08:55:06.211Z,12936.00
2018-09-17T08:56:06.399Z,13368.00
2018-09-17T08:57:06.596Z,13132.00
2018-09-17T08:58:06.824Z,13320.00
2018-09-17T08:59:06.993Z,12980.00
2018-09-17T09:00:07.167Z,13204.00
2018-09-17T09:01:07.359Z,13304.00
2018-09-17T09:02:07.558Z,13700.00
2018-09-17T09:03:07.745Z,13512.00
2018-09-17T09:04:07.903Z,13280.00
2018-09-17T09:05:08.170Z,13564.00
2018-09-17T09:06:08.306Z,13684.00
2018-09-17T09:07:08.496Z,13732.00
2018-09-17T09:08:08.685Z,13888.00
2018-09-17T09:09:08.860Z,13624.00
2018-09-17T09:10:09.042Z,13504.00
2018-09-17T09:11:09.233Z,13540.00
2018-09-17T09:12:09.424Z,13468.00
2018-09-17T09:13:09.600Z,13772.00
2018-09-17T09:14:09.784Z,13452.00
2018-09-17T09:15:09.973Z,13040.00
2018-09-17T09:16:10.166Z,13092.00
2018-09-17T09:17:10.342Z,13352.00
2018-09-17T09:18:10.532Z,13400.00
2018-09-17T09:19:10.717Z,12876.00
2018-09-17T09:20:10.903Z,12580.00
2018-09-17T09:21:11.088Z,11876.00
2018-09-17T09:22:11.272Z,11108.00
2018-09-17T09:23:11.475Z,10912.00
2018-09-17T09:24:11.659Z,11128.00
2018-09-17T09:25:11.847Z,11904.00
2018-09-17T09:26:12.063Z,12208.00
2018-09-17T09:29:45.547Z,12428.00
2018-09-17T09:30:45.764Z,12752.00
2018-09-17T09:31:45.921Z,12920.00
2018-09-17T09:32:46.114Z,13244.00
2018-09-17T09:33:46.289Z,12972.00
2018-09-17T09:34:46.488Z,13100.00
2018-09-17T09:35:46.698Z,12912.00
2018-09-17T09:36:46.880Z,12900.00
2018-09-17T09:37:47.065Z,12932.00
2018-09-17T09:38:47.247Z,13252.00
2018-09-17T09:39:47.437Z,13372.00
2018-09-17T09:40:47.615Z,13276.00
2018-09-17T09:41:47.807Z,13136.00
2018-09-17T09:42:47.990Z,13000.00
2018-09-17T09:43:48.176Z,12316.00
2018-09-17T09:44:48.365Z,12792.00
2018-09-17T09:45:48.550Z,12852.00
2018-09-17T09:46:48.735Z,12756.00
2018-09-17T09:47:48.935Z,12484.00
2018-09-17T09:48:49.111Z,12488.00
2018-09-17T09:49:49.300Z,12336.00
2018-09-17T09:50:51.551Z,12288.00
2018-09-17T09:51:49.752Z,12196.00
2018-09-17T09:52:49.969Z,12256.00
2018-09-17T09:53:50.185Z,12480.00
2018-09-17T09:54:50.311Z,11272.00
2018-09-17T09:55:50.500Z,12184.00
2018-09-17T09:56:50.688Z,12132.00
2018-09-17T09:57:50.876Z,12004.00
2018-09-17T09:58:51.068Z,11836.00
2018-09-17T09:59:51.268Z,11852.00
2018-09-17T10:00:51.454Z,11800.00
2018-09-17T10:01:51.642Z,11484.00
2018-09-17T10:02:51.830Z,11416.00
2018-09-17T10:03:52.025Z,11304.00
2018-09-17T10:04:52.209Z,11508.00
2018-09-17T10:05:52.396Z,11460.00
2018-09-17T10:06:52.582Z,11312.00
2018-09-17T10:07:52.782Z,11468.00
2018-09-17T10:08:52.968Z,11428.00
2018-09-17T10:10:53.336Z,11168.00
2018-09-17T10:11:53.527Z,10972.00
2018-09-17T10:12:53.724Z,10984.00
2018-09-17T10:13:53.898Z,10840.00
2018-09-17T10:14:54.097Z,11012.00
2018-09-17T10:15:54.272Z,11068.00
2018-09-17T10:16:54.475Z,10976.00
2018-09-17T10:17:54.695Z,10924.00
2018-09-17T10:18:54.857Z,10972.00
2018-09-17T10:19:55.038Z,10904.00
2018-09-17T10:20:55.211Z,10872.00
2018-09-17T10:21:55.526Z,10756.00
2018-09-17T10:22:55.660Z,10700.00
2018-09-17T10:23:55.863Z,10612.00
2018-09-17T10:24:55.986Z,10636.00
2018-09-17T10:25:56.166Z,10740.00
2018-09-17T10:26:56.340Z,10552.00
2018-09-17T10:27:56.539Z,10540.00
2018-09-17T10:28:56.709Z,10444.00
2018-09-17T10:29:56.907Z,10504.00
2018-09-17T10:30:57.091Z,10272.00
2018-09-17T10:31:57.285Z,10064.00
2018-09-17T10:32:57.465Z,9896.00
2018-09-17T10:33:57.638Z,9780.00
2018-09-17T10:34:57.829Z,9456.00
2018-09-17T10:35:58.018Z,9596.00
2018-09-17T10:36:58.169Z,9420.00
2018-09-17T10:37:58.353Z,9576.00
2018-09-17T10:38:58.528Z,9304.00
2018-09-17T10:39:58.720Z,9488.00
2018-09-17T10:40:58.884Z,9356.00
2018-09-17T10:41:59.058Z,8200.00
2018-09-17T10:42:59.237Z,8260.00
2018-09-17T10:43:59.417Z,6936.00
2018-09-17T10:44:59.599Z,6392.00
2018-09-17T10:45:59.781Z,6940.00
2018-09-17T10:47:00.028Z,7548.00
2018-09-17T10:48:00.143Z,8252.00
2018-09-17T10:49:00.319Z,7812.00
2018-09-17T10:50:00.498Z,8300.00
2018-09-17T10:51:00.684Z,7864.00
2018-09-17T10:52:00.870Z,7488.00
2018-09-17T10:53:01.071Z,7548.00
2018-09-17T10:54:01.239Z,7364.00
2018-09-17T10:55:01.433Z,7368.00
2018-09-17T10:56:01.640Z,7320.00
2018-09-17T10:57:01.867Z,7664.00
2018-09-17T10:58:02.076Z,7744.00
2018-09-17T10:59:02.238Z,7548.00
2018-09-17T11:00:02.438Z,7616.00
2018-09-17T11:01:02.648Z,7160.00
2018-09-17T11:02:02.818Z,7240.00
2018-09-17T11:03:02.995Z,7272.00
2018-09-17T11:04:03.182Z,7500.00
2018-09-17T11:05:03.372Z,7628.00
2018-09-17T11:06:03.544Z,7704.00
2018-09-17T11:07:03.732Z,7572.00
2018-09-17T11:08:03.918Z,7448.00
2018-09-17T11:09:04.071Z,7312.00
2018-09-17T11:10:04.253Z,7388.00
2018-09-17T11:11:04.427Z,7208.00
2018-09-17T11:12:04.608Z,7264.00
2018-09-17T11:13:04.792Z,7276.00
2018-09-17T11:14:04.975Z,7260.00
2018-09-17T11:15:05.164Z,7192.00
2018-09-17T11:16:05.330Z,7056.00
2018-09-17T11:17:05.489Z,7120.00
2018-09-17T11:18:05.674Z,7064.00
2018-09-17T11:19:05.862Z,6948.00
2018-09-17T11:20:06.023Z,6880.00
2018-09-17T11:21:06.206Z,6816.00
2018-09-17T11:22:06.394Z,6800.00
2018-09-17T11:23:06.577Z,6828.00
2018-09-17T11:24:06.756Z,6836.00
2018-09-17T11:25:06.943Z,6828.00
2018-09-17T11:26:07.127Z,6744.00
2018-09-17T11:27:07.315Z,6668.00
2018-09-17T11:28:07.496Z,6672.00
2018-09-17T11:29:07.662Z,6704.00
2018-09-17T11:30:07.845Z,6708.00
2018-09-17T11:31:08.016Z,6696.00
2018-09-17T11:32:08.210Z,6624.00
2018-09-17T11:33:08.366Z,6636.00
2018-09-17T11:34:08.541Z,6756.00
2018-09-17T11:35:08.724Z,6692.00
2018-09-17T11:36:08.949Z,6704.00
2018-09-17T11:37:09.111Z,6512.00
2018-09-17T11:38:09.288Z,6464.00
2018-09-17T11:39:09.483Z,6384.00
2018-09-17T11:40:09.657Z,6320.00
2018-09-17T11:41:09.873Z,6272.00
2018-09-17T11:42:09.966Z,6268.00
2018-09-17T11:43:10.144Z,6312.00
2018-09-17T11:44:10.348Z,6364.00
2018-09-17T11:45:10.534Z,6152.00
2018-09-17T11:46:10.717Z,6028.00
2018-09-17T11:47:10.878Z,6200.00
2018-09-17T11:48:11.091Z,6048.00
2018-09-17T11:49:11.252Z,5968.00
2018-09-17T11:50:11.487Z,6148.00
2018-09-17T11:51:11.612Z,6244.00
2018-09-17T11:52:11.786Z,5984.00
2018-09-17T11:53:11.976Z,6048.00
2018-09-17T11:54:12.134Z,6100.00
2018-09-17T11:55:12.336Z,6016.00
2018-09-17T11:56:12.519Z,5792.00
2018-09-17T11:57:12.691Z,5816.00
2018-09-17T11:58:12.865Z,5260.00
2018-09-17T11:59:13.043Z,5548.00
2018-09-17T12:00:13.224Z,5640.00
2018-09-17T12:01:13.420Z,5608.00
2018-09-17T12:02:13.667Z,5460.00
2018-09-17T12:03:13.791Z,5392.00
2018-09-17T12:04:13.980Z,5396.00
2018-09-17T12:05:14.178Z,5456.00
2018-09-17T12:06:14.314Z,5492.00
2018-09-17T12:07:14.538Z,5508.00
2018-09-17T12:08:14.710Z,5524.00
2018-09-17T12:09:14.942Z,5540.00
2018-09-17T12:10:15.085Z,5408.00
2018-09-17T12:11:15.415Z,5320.00
2018-09-17T12:12:15.489Z,5288.00
2018-09-17T12:13:15.658Z,5348.00
2018-09-17T12:15:16.028Z,5176.00
2018-09-17T12:16:16.187Z,5264.00
2018-09-17T12:17:16.371Z,5296.00
2018-09-17T12:18:16.537Z,5324.00
2018-09-17T12:19:16.721Z,5292.00
2018-09-17T12:20:16.885Z,5368.00
2018-09-17T12:21:17.071Z,5440.00
2018-09-17T12:22:17.275Z,5424.00
2018-09-17T12:23:17.462Z,5392.00
2018-09-17T12:24:17.660Z,5360.00
2018-09-17T12:25:17.783Z,5436.00
2018-09-17T12:26:17.966Z,5408.00
2018-09-17T12:27:18.158Z,5492.00
2018-09-17T12:28:18.334Z,5492.00
2018-09-17T12:29:18.531Z,5720.00
2018-09-17T12:30:18.700Z,5524.00
2018-09-17T12:31:18.891Z,5592.00
2018-09-17T12:32:19.043Z,5536.00
2018-09-17T12:33:19.212Z,5636.00
2018-09-17T12:34:19.390Z,5604.00
2018-09-17T12:35:19.563Z,5636.00
2018-09-17T12:36:19.754Z,5720.00
2018-09-17T12:37:19.934Z,5744.00
2018-09-17T12:38:20.126Z,5680.00
2018-09-17T12:39:20.331Z,5696.00